sensor_id;sensor_type;location;lat;lon;timestamp;temperature;humidity
34726;DHT22;20951;50.818;4.344;2022-09-09T00:02:01;15.70;99.90
34726;DHT22;20951;50.818;4.344;2022-09-09T00:04:39;15.60;99.90
34726;DHT22;20951;50.818;4.344;2022-09-09T00:07:21;15.70;99.90
34726;DHT22;20951;50.818;4.344;2022-09-09T00:15:14;15.50;99.90
34726;DHT22;20951;50.818;4.344;2022-09-09T00:18:07;15.40;99.90
34726;DHT22;20951;50.818;4.344;2022-09-09T00:20:52;15.40;99.90
34726;DHT22;20951;50.818;4.344;2022-09-09T00:23:29;15.50;99.90
34726;DHT22;20951;50.818;4.344;2022-09-09T00:26:04;15.50;99.90
34726;DHT22;20951;50.818;4.344;2022-09-09T00:28:52;15.50;99.90
34726;DHT22;20951;50.818;4.344;2022-09-09T00:31:29;15.30;99.90
34726;DHT22;20951;50.818;4.344;2022-09-09T00:34:00;15.50;99.90
34726;DHT22;20951;50.818;4.344;2022-09-09T00:36:31;15.50;99.90
34726;DHT22;20951;50.818;4.344;2022-09-09T00:39:01;15.50;99.90
34726;DHT22;20951;50.818;4.344;2022-09-09T00:41:43;15.60;99.90
34726;DHT22;20951;50.818;4.344;2022-09-09T00:44:33;15.60;99.90
34726;DHT22;20951;50.818;4.344;2022-09-09T00:49:46;15.70;99.90
34726;DHT22;20951;50.818;4.344;2022-09-09T00:52:29;15.60;99.90
34726;DHT22;20951;50.818;4.344;2022-09-09T00:55:16;15.60;99.90
34726;DHT22;20951;50.818;4.344;2022-09-09T00:57:44;15.60;99.90
34726;DHT22;20951;50.818;4.344;2022-09-09T01:00:35;15.70;99.90
34726;DHT22;20951;50.818;4.344;2022-09-09T01:03:48;15.70;99.90
34726;DHT22;20951;50.818;4.344;2022-09-09T01:06:35;15.70;99.90
34726;DHT22;20951;50.818;4.344;2022-09-09T01:25:20;15.70;99.90
34726;DHT22;20951;50.818;4.344;2022-09-09T01:27:49;15.80;99.90
34726;DHT22;20951;50.818;4.344;2022-09-09T01:30:18;15.90;99.90
34726;DHT22;20951;50.818;4.344;2022-09-09T01:32:45;15.80;99.90
34726;DHT22;20951;50.818;4.344;2022-09-09T01:35:46;15.80;99.90
34726;DHT22;20951;50.818;4.344;2022-09-09T01:38:21;15.70;99.90
34726;DHT22;20951;50.818;4.344;2022-09-09T01:40:48;15.70;99.90
34726;DHT22;20951;50.818;4.344;2022-09-09T01:43:25;15.60;99.90
34726;DHT22;20951;50.818;4.344;2022-09-09T01:45:54;15.70;99.90
34726;DHT22;20951;50.818;4.344;2022-09-09T01:48:28;15.70;99.90
34726;DHT22;20951;50.818;4.344;2022-09-09T01:50:55;15.70;99.90
34726;DHT22;20951;50.818;4.344;2022-09-09T01:53:24;15.70;99.90
34726;DHT22;20951;50.818;4.344;2022-09-09T01:58:46;15.60;99.90
34726;DHT22;20951;50.818;4.344;2022-09-09T02:06:48;15.70;99.90
34726;DHT22;20951;50.818;4.344;2022-09-09T02:09:17;15.80;99.90
34726;DHT22;20951;50.818;4.344;2022-09-09T02:11:44;15.70;99.90
34726;DHT22;20951;50.818;4.344;2022-09-09T02:14:23;15.60;99.90
34726;DHT22;20951;50.818;4.344;2022-09-09T02:17:13;15.60;99.90
34726;DHT22;20951;50.818;4.344;2022-09-09T02:20:05;15.60;99.90
34726;DHT22;20951;50.818;4.344;2022-09-09T02:22:44;15.70;99.90
34726;DHT22;20951;50.818;4.344;2022-09-09T02:25:18;15.70;99.90
34726;DHT22;20951;50.818;4.344;2022-09-09T02:27:46;15.70;99.90
34726;DHT22;20951;50.818;4.344;2022-09-09T02:30:14;15.80;99.90
34726;DHT22;20951;50.818;4.344;2022-09-09T02:32:42;15.80;99.90
34726;DHT22;20951;50.818;4.344;2022-09-09T02:35:19;15.80;99.90
34726;DHT22;20951;50.818;4.344;2022-09-09T02:37:45;15.80;99.90
34726;DHT22;20951;50.818;4.344;2022-09-09T02:40:13;15.80;99.90
34726;DHT22;20951;50.818;4.344;2022-09-09T02:42:48;15.70;99.90
34726;DHT22;20951;50.818;4.344;2022-09-09T02:45:20;15.80;99.90
34726;DHT22;20951;50.818;4.344;2022-09-09T02:53:24;15.70;99.90
34726;DHT22;20951;50.818;4.344;2022-09-09T02:55:58;15.80;99.90
34726;DHT22;20951;50.818;4.344;2022-09-09T02:58:29;15.80;99.90
34726;DHT22;20951;50.818;4.344;2022-09-09T03:01:05;15.80;99.90
34726;DHT22;20951;50.818;4.344;2022-09-09T03:03:31;15.80;99.90
34726;DHT22;20951;50.818;4.344;2022-09-09T03:06:08;15.80;99.90
34726;DHT22;20951;50.818;4.344;2022-09-09T03:08:41;15.80;99.90
34726;DHT22;20951;50.818;4.344;2022-09-09T03:11:10;15.80;99.90
34726;DHT22;20951;50.818;4.344;2022-09-09T03:13:36;15.80;99.90
34726;DHT22;20951;50.818;4.344;2022-09-09T03:16:03;15.80;99.90
34726;DHT22;20951;50.818;4.344;2022-09-09T03:18:32;15.80;99.90
34726;DHT22;20951;50.818;4.344;2022-09-09T03:20:57;15.90;99.90
34726;DHT22;20951;50.818;4.344;2022-09-09T03:23:32;15.90;99.90
34726;DHT22;20951;50.818;4.344;2022-09-09T03:26:07;15.80;99.90
34726;DHT22;20951;50.818;4.344;2022-09-09T03:28:35;15.80;99.90
34726;DHT22;20951;50.818;4.344;2022-09-09T03:31:03;15.70;99.90
34726;DHT22;20951;50.818;4.344;2022-09-09T03:33:30;15.60;99.90
34726;DHT22;20951;50.818;4.344;2022-09-09T03:36:05;15.60;99.90
34726;DHT22;20951;50.818;4.344;2022-09-09T03:38:31;15.60;99.90
34726;DHT22;20951;50.818;4.344;2022-09-09T03:40:58;15.60;99.90
34726;DHT22;20951;50.818;4.344;2022-09-09T03:43:25;15.50;99.90
34726;DHT22;20951;50.818;4.344;2022-09-09T03:45:54;15.50;99.90
34726;DHT22;20951;50.818;4.344;2022-09-09T03:48:22;15.50;99.90
34726;DHT22;20951;50.818;4.344;2022-09-09T03:50:52;15.60;99.90
34726;DHT22;20951;50.818;4.344;2022-09-09T03:53:29;15.60;99.90
34726;DHT22;20951;50.818;4.344;2022-09-09T03:55:57;15.60;99.90
34726;DHT22;20951;50.818;4.344;2022-09-09T03:58:26;15.70;99.90
34726;DHT22;20951;50.818;4.344;2022-09-09T04:00:56;15.60;99.90
34726;DHT22;20951;50.818;4.344;2022-09-09T04:03:23;15.70;99.90
34726;DHT22;20951;50.818;4.344;2022-09-09T04:05:52;15.70;99.90
34726;DHT22;20951;50.818;4.344;2022-09-09T04:08:21;15.80;99.90
34726;DHT22;20951;50.818;4.344;2022-09-09T04:10:48;15.80;99.90
34726;DHT22;20951;50.818;4.344;2022-09-09T04:13:24;15.80;99.90
34726;DHT22;20951;50.818;4.344;2022-09-09T04:15:54;15.70;99.90
34726;DHT22;20951;50.818;4.344;2022-09-09T04:18:21;15.70;99.90
34726;DHT22;20951;50.818;4.344;2022-09-09T04:20:48;15.70;99.90
34726;DHT22;20951;50.818;4.344;2022-09-09T04:23:18;15.70;99.90
34726;DHT22;20951;50.818;4.344;2022-09-09T04:25:49;15.60;99.90
34726;DHT22;20951;50.818;4.344;2022-09-09T04:28:15;15.60;99.90
34726;DHT22;20951;50.818;4.344;2022-09-09T04:30:50;15.70;99.90
34726;DHT22;20951;50.818;4.344;2022-09-09T04:33:18;15.60;99.90
34726;DHT22;20951;50.818;4.344;2022-09-09T04:35:52;15.60;99.90
34726;DHT22;20951;50.818;4.344;2022-09-09T04:38:19;15.60;99.90
34726;DHT22;20951;50.818;4.344;2022-09-09T04:40:49;15.60;99.90
34726;DHT22;20951;50.818;4.344;2022-09-09T04:43:17;15.50;99.90
34726;DHT22;20951;50.818;4.344;2022-09-09T04:45:47;15.50;99.90
34726;DHT22;20951;50.818;4.344;2022-09-09T04:48:13;15.50;99.90
34726;DHT22;20951;50.818;4.344;2022-09-09T04:50:39;15.50;99.90
34726;DHT22;20951;50.818;4.344;2022-09-09T04:53:16;15.50;99.90
34726;DHT22;20951;50.818;4.344;2022-09-09T04:55:47;15.50;99.90
34726;DHT22;20951;50.818;4.344;2022-09-09T04:58:14;15.50;99.90
34726;DHT22;20951;50.818;4.344;2022-09-09T05:00:41;15.60;99.90
34726;DHT22;20951;50.818;4.344;2022-09-09T05:03:08;15.60;99.90
34726;DHT22;20951;50.818;4.344;2022-09-09T05:05:44;15.60;99.90
34726;DHT22;20951;50.818;4.344;2022-09-09T05:08:12;15.60;99.90
34726;DHT22;20951;50.818;4.344;2022-09-09T05:10:47;15.60;99.90
34726;DHT22;20951;50.818;4.344;2022-09-09T05:13:14;15.60;99.90
34726;DHT22;20951;50.818;4.344;2022-09-09T05:15:42;15.60;99.90
34726;DHT22;20951;50.818;4.344;2022-09-09T05:18:18;15.70;99.90
34726;DHT22;20951;50.818;4.344;2022-09-09T05:20:47;15.80;99.90
34726;DHT22;20951;50.818;4.344;2022-09-09T05:23:16;15.70;99.90
34726;DHT22;20951;50.818;4.344;2022-09-09T05:25:42;15.90;99.90
34726;DHT22;20951;50.818;4.344;2022-09-09T05:28:09;15.80;99.90
34726;DHT22;20951;50.818;4.344;2022-09-09T05:30:35;15.90;99.90
34726;DHT22;20951;50.818;4.344;2022-09-09T05:33:04;15.90;99.90
34726;DHT22;20951;50.818;4.344;2022-09-09T05:35:31;15.90;99.90
34726;DHT22;20951;50.818;4.344;2022-09-09T05:38:06;16.00;99.90
34726;DHT22;20951;50.818;4.344;2022-09-09T05:40:35;15.90;99.90
34726;DHT22;20951;50.818;4.344;2022-09-09T05:43:01;15.90;99.90
34726;DHT22;20951;50.818;4.344;2022-09-09T05:45:29;15.90;99.90
34726;DHT22;20951;50.818;4.344;2022-09-09T05:47:55;15.90;99.90
34726;DHT22;20951;50.818;4.344;2022-09-09T05:50:21;15.90;99.90
34726;DHT22;20951;50.818;4.344;2022-09-09T05:52:47;15.90;99.90
34726;DHT22;20951;50.818;4.344;2022-09-09T05:55:14;16.00;99.90
34726;DHT22;20951;50.818;4.344;2022-09-09T05:57:40;16.00;99.90
34726;DHT22;20951;50.818;4.344;2022-09-09T06:00:08;16.10;99.90
34726;DHT22;20951;50.818;4.344;2022-09-09T06:02:34;16.50;99.90
34726;DHT22;20951;50.818;4.344;2022-09-09T06:05:02;16.90;99.90
34726;DHT22;20951;50.818;4.344;2022-09-09T06:07:28;17.10;99.90
34726;DHT22;20951;50.818;4.344;2022-09-09T06:09:57;17.10;99.90
34726;DHT22;20951;50.818;4.344;2022-09-09T06:12:25;17.10;99.90
34726;DHT22;20951;50.818;4.344;2022-09-09T06:14:51;17.00;99.90
34726;DHT22;20951;50.818;4.344;2022-09-09T06:17:19;16.90;99.90
34726;DHT22;20951;50.818;4.344;2022-09-09T06:19:55;16.90;99.90
34726;DHT22;20951;50.818;4.344;2022-09-09T06:22:21;16.70;99.90
34726;DHT22;20951;50.818;4.344;2022-09-09T06:24:49;16.60;99.90
34726;DHT22;20951;50.818;4.344;2022-09-09T06:27:18;16.60;99.90
34726;DHT22;20951;50.818;4.344;2022-09-09T06:29:46;16.70;99.90
34726;DHT22;20951;50.818;4.344;2022-09-09T06:32:21;16.70;99.90
34726;DHT22;20951;50.818;4.344;2022-09-09T06:34:47;16.70;99.90
34726;DHT22;20951;50.818;4.344;2022-09-09T06:37:14;16.60;99.90
34726;DHT22;20951;50.818;4.344;2022-09-09T06:39:49;16.70;99.90
34726;DHT22;20951;50.818;4.344;2022-09-09T06:42:18;16.60;99.90
34726;DHT22;20951;50.818;4.344;2022-09-09T06:44:44;16.60;99.90
34726;DHT22;20951;50.818;4.344;2022-09-09T06:47:12;16.60;99.90
34726;DHT22;20951;50.818;4.344;2022-09-09T06:49:38;16.60;99.90
34726;DHT22;20951;50.818;4.344;2022-09-09T06:52:06;16.70;99.90
34726;DHT22;20951;50.818;4.344;2022-09-09T06:54:34;16.60;99.90
34726;DHT22;20951;50.818;4.344;2022-09-09T06:57:02;16.90;99.90
34726;DHT22;20951;50.818;4.344;2022-09-09T06:59:37;16.90;99.90
34726;DHT22;20951;50.818;4.344;2022-09-09T07:02:07;17.00;99.90
34726;DHT22;20951;50.818;4.344;2022-09-09T07:04:33;17.00;99.90
34726;DHT22;20951;50.818;4.344;2022-09-09T07:06:58;17.00;99.90
34726;DHT22;20951;50.818;4.344;2022-09-09T07:09:24;17.00;99.90
34726;DHT22;20951;50.818;4.344;2022-09-09T07:11:55;16.90;99.90
34726;DHT22;20951;50.818;4.344;2022-09-09T07:14:23;16.80;99.90
34726;DHT22;20951;50.818;4.344;2022-09-09T07:16:52;16.80;99.90
34726;DHT22;20951;50.818;4.344;2022-09-09T07:19:18;16.90;99.90
34726;DHT22;20951;50.818;4.344;2022-09-09T07:21:44;17.00;99.90
34726;DHT22;20951;50.818;4.344;2022-09-09T07:24:11;16.90;99.90
34726;DHT22;20951;50.818;4.344;2022-09-09T07:26:38;16.90;99.90
34726;DHT22;20951;50.818;4.344;2022-09-09T07:29:07;16.80;99.90
34726;DHT22;20951;50.818;4.344;2022-09-09T07:31:35;16.80;99.90
34726;DHT22;20951;50.818;4.344;2022-09-09T07:34:02;16.70;99.90
34726;DHT22;20951;50.818;4.344;2022-09-09T07:36:35;16.80;99.90
34726;DHT22;20951;50.818;4.344;2022-09-09T07:39:04;16.80;99.90
34726;DHT22;20951;50.818;4.344;2022-09-09T07:41:41;16.50;99.90
34726;DHT22;20951;50.818;4.344;2022-09-09T07:44:09;16.30;99.90
34726;DHT22;20951;50.818;4.344;2022-09-09T07:46:37;16.30;99.90
34726;DHT22;20951;50.818;4.344;2022-09-09T07:49:04;16.20;99.90
34726;DHT22;20951;50.818;4.344;2022-09-09T07:51:35;16.10;99.90
34726;DHT22;20951;50.818;4.344;2022-09-09T07:54:06;16.10;99.90
34726;DHT22;20951;50.818;4.344;2022-09-09T07:56:35;16.10;99.90
34726;DHT22;20951;50.818;4.344;2022-09-09T07:59:03;16.00;99.90
34726;DHT22;20951;50.818;4.344;2022-09-09T08:01:38;16.20;99.90
34726;DHT22;20951;50.818;4.344;2022-09-09T08:04:13;16.50;99.90
34726;DHT22;20951;50.818;4.344;2022-09-09T08:06:50;16.50;99.90
34726;DHT22;20951;50.818;4.344;2022-09-09T08:09:18;16.80;99.90
34726;DHT22;20951;50.818;4.344;2022-09-09T08:11:55;17.40;99.90
34726;DHT22;20951;50.818;4.344;2022-09-09T08:14:25;17.60;99.90
34726;DHT22;20951;50.818;4.344;2022-09-09T08:16:51;17.80;99.90
34726;DHT22;20951;50.818;4.344;2022-09-09T08:19:19;17.80;99.90
34726;DHT22;20951;50.818;4.344;2022-09-09T08:21:45;17.60;99.90
34726;DHT22;20951;50.818;4.344;2022-09-09T08:24:12;17.50;99.90
34726;DHT22;20951;50.818;4.344;2022-09-09T08:26:42;17.50;99.90
34726;DHT22;20951;50.818;4.344;2022-09-09T08:29:10;17.50;99.90
34726;DHT22;20951;50.818;4.344;2022-09-09T08:31:51;17.40;99.90
34726;DHT22;20951;50.818;4.344;2022-09-09T08:34:18;17.40;99.90
34726;DHT22;20951;50.818;4.344;2022-09-09T08:36:48;17.40;99.90
34726;DHT22;20951;50.818;4.344;2022-09-09T08:39:16;17.30;99.90
34726;DHT22;20951;50.818;4.344;2022-09-09T08:45:00;17.00;99.90
34726;DHT22;20951;50.818;4.344;2022-09-09T08:53:14;16.60;99.90
34726;DHT22;20951;50.818;4.344;2022-09-09T08:55:50;16.60;99.90
34726;DHT22;20951;50.818;4.344;2022-09-09T08:58:26;16.70;99.90
34726;DHT22;20951;50.818;4.344;2022-09-09T09:11:59;16.60;99.90
34726;DHT22;20951;50.818;4.344;2022-09-09T09:14:33;16.50;99.90
34726;DHT22;20951;50.818;4.344;2022-09-09T09:17:04;16.40;99.90
34726;DHT22;20951;50.818;4.344;2022-09-09T09:19:34;16.30;99.90
34726;DHT22;20951;50.818;4.344;2022-09-09T09:29:57;16.30;99.90
34726;DHT22;20951;50.818;4.344;2022-09-09T09:32:34;16.30;99.90
34726;DHT22;20951;50.818;4.344;2022-09-09T09:35:15;16.20;99.90
34726;DHT22;20951;50.818;4.344;2022-09-09T09:37:43;16.10;99.90
34726;DHT22;20951;50.818;4.344;2022-09-09T09:40:19;16.10;99.90
34726;DHT22;20951;50.818;4.344;2022-09-09T09:43:00;16.10;99.90
34726;DHT22;20951;50.818;4.344;2022-09-09T09:45:43;16.10;99.90
34726;DHT22;20951;50.818;4.344;2022-09-09T09:48:13;16.00;99.90
34726;DHT22;20951;50.818;4.344;2022-09-09T09:53:35;16.20;99.90
34726;DHT22;20951;50.818;4.344;2022-09-09T09:56:07;16.30;99.90
34726;DHT22;20951;50.818;4.344;2022-09-09T10:01:38;16.50;99.90
34726;DHT22;20951;50.818;4.344;2022-09-09T10:04:17;16.50;99.90
34726;DHT22;20951;50.818;4.344;2022-09-09T10:06:46;16.60;99.90
34726;DHT22;20951;50.818;4.344;2022-09-09T10:09:27;16.60;99.90
34726;DHT22;20951;50.818;4.344;2022-09-09T10:22:35;16.80;99.90
34726;DHT22;20951;50.818;4.344;2022-09-09T10:25:08;16.70;99.90
34726;DHT22;20951;50.818;4.344;2022-09-09T10:38:19;17.60;99.90
34726;DHT22;20951;50.818;4.344;2022-09-09T10:48:41;17.90;99.90
34726;DHT22;20951;50.818;4.344;2022-09-09T10:51:31;18.00;99.90
34726;DHT22;20951;50.818;4.344;2022-09-09T10:57:11;17.80;99.90
34726;DHT22;20951;50.818;4.344;2022-09-09T10:59:42;18.00;99.90
34726;DHT22;20951;50.818;4.344;2022-09-09T11:02:25;18.10;99.90
34726;DHT22;20951;50.818;4.344;2022-09-09T11:04:59;18.20;99.90
34726;DHT22;20951;50.818;4.344;2022-09-09T11:07:29;18.20;99.90
34726;DHT22;20951;50.818;4.344;2022-09-09T11:10:02;18.20;99.90
34726;DHT22;20951;50.818;4.344;2022-09-09T11:12:31;18.20;99.90
34726;DHT22;20951;50.818;4.344;2022-09-09T11:15:15;18.30;99.90
34726;DHT22;20951;50.818;4.344;2022-09-09T11:17:52;18.60;99.90
34726;DHT22;20951;50.818;4.344;2022-09-09T11:20:20;18.90;99.90
34726;DHT22;20951;50.818;4.344;2022-09-09T11:23:04;18.90;99.90
34726;DHT22;20951;50.818;4.344;2022-09-09T11:25:40;18.70;99.90
34726;DHT22;20951;50.818;4.344;2022-09-09T11:33:18;18.70;99.90
34726;DHT22;20951;50.818;4.344;2022-09-09T11:36:17;18.70;99.90
34726;DHT22;20951;50.818;4.344;2022-09-09T11:38:49;18.70;99.90
34726;DHT22;20951;50.818;4.344;2022-09-09T11:41:21;18.40;99.90
34726;DHT22;20951;50.818;4.344;2022-09-09T11:43:54;18.60;99.90
34726;DHT22;20951;50.818;4.344;2022-09-09T11:46:36;18.70;99.90
34726;DHT22;20951;50.818;4.344;2022-09-09T11:49:05;18.80;99.90
34726;DHT22;20951;50.818;4.344;2022-09-09T11:51:39;19.00;99.90
34726;DHT22;20951;50.818;4.344;2022-09-09T11:54:31;19.00;99.90
34726;DHT22;20951;50.818;4.344;2022-09-09T11:57:05;18.80;99.90
34726;DHT22;20951;50.818;4.344;2022-09-09T11:59:50;18.60;99.90
34726;DHT22;20951;50.818;4.344;2022-09-09T12:02:30;18.80;99.90
34726;DHT22;20951;50.818;4.344;2022-09-09T12:05:11;18.80;99.90
34726;DHT22;20951;50.818;4.344;2022-09-09T12:07:56;19.00;99.90
34726;DHT22;20951;50.818;4.344;2022-09-09T12:10:31;18.90;99.90
34726;DHT22;20951;50.818;4.344;2022-09-09T12:13:19;19.10;99.90
34726;DHT22;20951;50.818;4.344;2022-09-09T12:15:51;19.10;99.90
34726;DHT22;20951;50.818;4.344;2022-09-09T12:18:39;19.00;99.90
34726;DHT22;20951;50.818;4.344;2022-09-09T12:21:41;18.90;99.90
34726;DHT22;20951;50.818;4.344;2022-09-09T12:24:35;18.80;99.90
34726;DHT22;20951;50.818;4.344;2022-09-09T12:30:10;19.20;99.90
34726;DHT22;20951;50.818;4.344;2022-09-09T12:32:47;19.40;99.90
34726;DHT22;20951;50.818;4.344;2022-09-09T12:35:15;19.70;99.90
34726;DHT22;20951;50.818;4.344;2022-09-09T12:37:57;19.70;99.90
34726;DHT22;20951;50.818;4.344;2022-09-09T12:40:31;19.30;99.90
34726;DHT22;20951;50.818;4.344;2022-09-09T12:43:01;19.30;99.90
34726;DHT22;20951;50.818;4.344;2022-09-09T12:45:29;19.30;99.90
34726;DHT22;20951;50.818;4.344;2022-09-09T12:47:57;19.70;99.90
34726;DHT22;20951;50.818;4.344;2022-09-09T12:50:43;19.90;99.90
34726;DHT22;20951;50.818;4.344;2022-09-09T12:53:31;20.30;99.90
34726;DHT22;20951;50.818;4.344;2022-09-09T12:56:07;20.20;99.90
34726;DHT22;20951;50.818;4.344;2022-09-09T12:58:35;20.20;99.90
34726;DHT22;20951;50.818;4.344;2022-09-09T13:01:02;20.50;99.90
34726;DHT22;20951;50.818;4.344;2022-09-09T13:03:31;20.70;99.90
34726;DHT22;20951;50.818;4.344;2022-09-09T13:06:24;20.60;99.90
34726;DHT22;20951;50.818;4.344;2022-09-09T13:08:51;20.60;99.90
34726;DHT22;20951;50.818;4.344;2022-09-09T13:11:23;20.40;99.90
34726;DHT22;20951;50.818;4.344;2022-09-09T13:13:55;20.90;99.90
34726;DHT22;20951;50.818;4.344;2022-09-09T13:16:22;20.60;99.90
34726;DHT22;20951;50.818;4.344;2022-09-09T13:18:49;20.80;99.90
34726;DHT22;20951;50.818;4.344;2022-09-09T13:21:18;20.70;99.90
34726;DHT22;20951;50.818;4.344;2022-09-09T13:23:49;21.10;99.90
34726;DHT22;20951;50.818;4.344;2022-09-09T13:26:26;21.80;99.90
34726;DHT22;20951;50.818;4.344;2022-09-09T13:28:54;21.80;99.90
34726;DHT22;20951;50.818;4.344;2022-09-09T13:31:28;21.50;99.90
34726;DHT22;20951;50.818;4.344;2022-09-09T13:33:54;21.60;99.90
34726;DHT22;20951;50.818;4.344;2022-09-09T13:36:31;21.50;99.90
34726;DHT22;20951;50.818;4.344;2022-09-09T13:38:58;21.00;99.90
34726;DHT22;20951;50.818;4.344;2022-09-09T13:41:36;21.10;99.90
34726;DHT22;20951;50.818;4.344;2022-09-09T13:44:42;20.90;99.90
34726;DHT22;20951;50.818;4.344;2022-09-09T13:47:18;20.60;99.90
34726;DHT22;20951;50.818;4.344;2022-09-09T13:49:45;20.40;99.90
34726;DHT22;20951;50.818;4.344;2022-09-09T13:52:18;20.60;99.90
34726;DHT22;20951;50.818;4.344;2022-09-09T13:54:51;20.80;99.90
34726;DHT22;20951;50.818;4.344;2022-09-09T13:57:25;20.80;99.90
34726;DHT22;20951;50.818;4.344;2022-09-09T13:59:52;20.50;99.90
34726;DHT22;20951;50.818;4.344;2022-09-09T14:02:20;20.40;99.90
34726;DHT22;20951;50.818;4.344;2022-09-09T14:04:48;20.70;99.90
34726;DHT22;20951;50.818;4.344;2022-09-09T14:07:17;20.90;99.90
34726;DHT22;20951;50.818;4.344;2022-09-09T14:09:43;21.40;99.90
34726;DHT22;20951;50.818;4.344;2022-09-09T14:12:17;21.80;99.90
34726;DHT22;20951;50.818;4.344;2022-09-09T14:14:43;21.50;99.90
34726;DHT22;20951;50.818;4.344;2022-09-09T14:17:12;21.00;99.90
34726;DHT22;20951;50.818;4.344;2022-09-09T14:19:41;20.80;99.90
34726;DHT22;20951;50.818;4.344;2022-09-09T14:22:10;20.70;99.90
34726;DHT22;20951;50.818;4.344;2022-09-09T14:24:36;20.60;99.90
34726;DHT22;20951;50.818;4.344;2022-09-09T14:27:02;20.30;99.90
34726;DHT22;20951;50.818;4.344;2022-09-09T14:29:28;20.30;99.90
34726;DHT22;20951;50.818;4.344;2022-09-09T14:31:53;20.60;99.90
34726;DHT22;20951;50.818;4.344;2022-09-09T14:34:19;21.00;99.90
34726;DHT22;20951;50.818;4.344;2022-09-09T14:36:45;21.10;99.90
34726;DHT22;20951;50.818;4.344;2022-09-09T14:39:12;21.40;99.90
34726;DHT22;20951;50.818;4.344;2022-09-09T14:41:38;21.50;99.90
34726;DHT22;20951;50.818;4.344;2022-09-09T14:44:06;21.60;99.90
34726;DHT22;20951;50.818;4.344;2022-09-09T14:46:32;21.50;99.90
34726;DHT22;20951;50.818;4.344;2022-09-09T14:48:59;21.40;99.90
34726;DHT22;20951;50.818;4.344;2022-09-09T14:51:25;21.30;99.90
34726;DHT22;20951;50.818;4.344;2022-09-09T14:53:55;21.40;99.90
34726;DHT22;20951;50.818;4.344;2022-09-09T14:56:27;21.80;99.90
34726;DHT22;20951;50.818;4.344;2022-09-09T14:58:54;21.70;99.90
34726;DHT22;20951;50.818;4.344;2022-09-09T15:01:22;21.20;99.90
34726;DHT22;20951;50.818;4.344;2022-09-09T15:04:02;21.10;99.90
34726;DHT22;20951;50.818;4.344;2022-09-09T15:06:35;21.10;99.90
34726;DHT22;20951;50.818;4.344;2022-09-09T15:09:17;21.50;99.90
34726;DHT22;20951;50.818;4.344;2022-09-09T15:11:48;21.40;99.90
34726;DHT22;20951;50.818;4.344;2022-09-09T15:14:14;21.40;99.90
34726;DHT22;20951;50.818;4.344;2022-09-09T15:16:40;21.30;99.90
34726;DHT22;20951;50.818;4.344;2022-09-09T15:19:07;21.30;99.90
34726;DHT22;20951;50.818;4.344;2022-09-09T15:21:35;21.50;99.90
34726;DHT22;20951;50.818;4.344;2022-09-09T15:24:01;21.80;99.90
34726;DHT22;20951;50.818;4.344;2022-09-09T15:26:27;21.90;99.90
34726;DHT22;20951;50.818;4.344;2022-09-09T15:28:53;21.90;99.90
34726;DHT22;20951;50.818;4.344;2022-09-09T15:31:23;21.20;99.90
34726;DHT22;20951;50.818;4.344;2022-09-09T15:33:53;20.90;99.90
34726;DHT22;20951;50.818;4.344;2022-09-09T15:36:39;20.80;99.90
34726;DHT22;20951;50.818;4.344;2022-09-09T15:39:08;21.00;99.90
34726;DHT22;20951;50.818;4.344;2022-09-09T15:41:35;20.90;99.90
34726;DHT22;20951;50.818;4.344;2022-09-09T15:44:01;21.00;99.90
34726;DHT22;20951;50.818;4.344;2022-09-09T15:46:34;20.90;99.90
34726;DHT22;20951;50.818;4.344;2022-09-09T15:49:11;20.90;99.90
34726;DHT22;20951;50.818;4.344;2022-09-09T15:51:44;20.90;99.90
34726;DHT22;20951;50.818;4.344;2022-09-09T15:54:12;20.90;99.90
34726;DHT22;20951;50.818;4.344;2022-09-09T15:56:38;20.80;99.90
34726;DHT22;20951;50.818;4.344;2022-09-09T15:59:05;20.80;99.90
34726;DHT22;20951;50.818;4.344;2022-09-09T16:01:31;20.80;99.90
34726;DHT22;20951;50.818;4.344;2022-09-09T16:03:58;20.60;99.90
34726;DHT22;20951;50.818;4.344;2022-09-09T16:06:25;20.70;99.90
34726;DHT22;20951;50.818;4.344;2022-09-09T16:08:54;20.80;99.90
34726;DHT22;20951;50.818;4.344;2022-09-09T16:11:22;20.80;99.90
34726;DHT22;20951;50.818;4.344;2022-09-09T16:13:50;20.60;99.90
34726;DHT22;20951;50.818;4.344;2022-09-09T16:16:19;20.20;99.90
34726;DHT22;20951;50.818;4.344;2022-09-09T16:18:51;20.10;99.90
34726;DHT22;20951;50.818;4.344;2022-09-09T16:21:23;20.10;99.90
34726;DHT22;20951;50.818;4.344;2022-09-09T16:23:55;20.00;99.90
34726;DHT22;20951;50.818;4.344;2022-09-09T16:26:22;20.00;99.90
34726;DHT22;20951;50.818;4.344;2022-09-09T16:28:49;19.80;99.90
34726;DHT22;20951;50.818;4.344;2022-09-09T16:31:17;19.40;99.90
34726;DHT22;20951;50.818;4.344;2022-09-09T16:33:44;19.00;99.90
34726;DHT22;20951;50.818;4.344;2022-09-09T16:36:12;18.50;99.90
34726;DHT22;20951;50.818;4.344;2022-09-09T16:38:39;18.30;99.90
34726;DHT22;20951;50.818;4.344;2022-09-09T16:41:10;18.20;99.90
34726;DHT22;20951;50.818;4.344;2022-09-09T16:43:40;18.20;99.90
34726;DHT22;20951;50.818;4.344;2022-09-09T16:46:17;18.00;99.90
34726;DHT22;20951;50.818;4.344;2022-09-09T16:48:47;18.20;99.90
34726;DHT22;20951;50.818;4.344;2022-09-09T16:51:24;18.20;99.90
34726;DHT22;20951;50.818;4.344;2022-09-09T16:53:51;18.40;99.90
34726;DHT22;20951;50.818;4.344;2022-09-09T16:56:19;18.40;99.90
34726;DHT22;20951;50.818;4.344;2022-09-09T16:58:55;18.40;99.90
34726;DHT22;20951;50.818;4.344;2022-09-09T17:01:22;18.40;99.90
34726;DHT22;20951;50.818;4.344;2022-09-09T17:03:54;18.30;99.90
34726;DHT22;20951;50.818;4.344;2022-09-09T17:06:21;18.30;99.90
34726;DHT22;20951;50.818;4.344;2022-09-09T17:08:47;18.30;99.90
34726;DHT22;20951;50.818;4.344;2022-09-09T17:11:18;18.30;99.90
34726;DHT22;20951;50.818;4.344;2022-09-09T17:13:56;18.40;99.90
34726;DHT22;20951;50.818;4.344;2022-09-09T17:16:25;18.40;99.90
34726;DHT22;20951;50.818;4.344;2022-09-09T17:18:53;18.40;99.90
34726;DHT22;20951;50.818;4.344;2022-09-09T17:21:23;18.30;99.90
34726;DHT22;20951;50.818;4.344;2022-09-09T17:23:51;18.10;99.90
34726;DHT22;20951;50.818;4.344;2022-09-09T17:26:19;18.00;99.90
34726;DHT22;20951;50.818;4.344;2022-09-09T17:28:48;18.00;99.90
34726;DHT22;20951;50.818;4.344;2022-09-09T17:31:16;17.90;99.90
34726;DHT22;20951;50.818;4.344;2022-09-09T17:33:47;17.90;99.90
34726;DHT22;20951;50.818;4.344;2022-09-09T17:36:22;17.90;99.90
34726;DHT22;20951;50.818;4.344;2022-09-09T17:38:49;18.00;99.90
34726;DHT22;20951;50.818;4.344;2022-09-09T17:41:23;17.90;99.90
34726;DHT22;20951;50.818;4.344;2022-09-09T17:43:49;18.00;99.90
34726;DHT22;20951;50.818;4.344;2022-09-09T17:46:21;17.90;99.90
34726;DHT22;20951;50.818;4.344;2022-09-09T17:48:49;17.90;99.90
34726;DHT22;20951;50.818;4.344;2022-09-09T17:51:19;17.80;99.90